createdAt,value
2017-04-14T00:00:33.252Z,1002.16
2017-04-14T00:01:33.270Z,1002.11
2017-04-14T00:02:33.287Z,1002.14
2017-04-14T00:03:33.302Z,1002.11
2017-04-14T00:04:33.319Z,1002.1
2017-04-14T00:05:33.335Z,1002.1
2017-04-14T00:06:33.352Z,1002.13
2017-04-14T00:07:33.367Z,1002.11
2017-04-14T00:08:33.383Z,1002.13
2017-04-14T00:09:33.399Z,1002.13
2017-04-14T00:10:33.414Z,1002.16
2017-04-14T00:11:33.433Z,1002.18
2017-04-14T00:12:33.448Z,1002.2
2017-04-14T00:13:33.467Z,1002.21
2017-04-14T00:14:33.481Z,1002.15
2017-04-14T00:15:33.496Z,1002.18
2017-04-14T00:16:33.513Z,1002.16
2017-04-14T00:17:33.529Z,1002.14
2017-04-14T00:18:33.544Z,1002.1
2017-04-14T00:19:33.561Z,1002.08
2017-04-14T00:20:33.577Z,1002.03
2017-04-14T00:21:33.594Z,1002
2017-04-14T00:22:33.610Z,1002.03
2017-04-14T00:23:33.626Z,1002.04
2017-04-14T00:24:33.650Z,1002.01
2017-04-14T00:25:33.658Z,1002.01
2017-04-14T00:26:33.674Z,1001.99
2017-04-14T00:27:33.692Z,1002.03
2017-04-14T00:28:33.707Z,1002.04
2017-04-14T00:29:33.722Z,1002
2017-04-14T00:30:33.739Z,1002.01
2017-04-14T00:31:33.754Z,1002.02
2017-04-14T00:32:33.771Z,1002
2017-04-14T00:33:33.786Z,1002.02
2017-04-14T00:34:33.805Z,1002
2017-04-14T00:35:33.822Z,1002.03
2017-04-14T00:36:33.835Z,1001.99
2017-04-14T00:37:33.852Z,1002.01
2017-04-14T00:38:33.868Z,1001.99
2017-04-14T00:39:33.883Z,1001.98
2017-04-14T00:40:33.899Z,1001.99
2017-04-14T00:41:33.917Z,1002
2017-04-14T00:42:33.931Z,1002.01
2017-04-14T00:43:33.947Z,1002
2017-04-14T00:44:33.964Z,1002.02
2017-04-14T00:45:33.980Z,1001.99
2017-04-14T00:46:33.996Z,1002.04
2017-04-14T00:47:34.012Z,1002.06
2017-04-14T00:48:34.027Z,1002.01
2017-04-14T00:49:34.044Z,1002.03
2017-04-14T00:50:34.060Z,1002.06
2017-04-14T00:51:34.076Z,1002.04
2017-04-14T00:52:34.091Z,1002.09
2017-04-14T00:53:34.110Z,1002.06
2017-04-14T00:54:34.122Z,1002.09
2017-04-14T00:55:34.140Z,1002.05
2017-04-14T00:56:34.155Z,1002.02
2017-04-14T00:57:34.173Z,1002.02
2017-04-14T00:58:34.188Z,1002.04
2017-04-14T00:59:34.204Z,1002.04
2017-04-14T01:00:34.219Z,1002.01
2017-04-14T01:01:34.238Z,1002.04
2017-04-14T01:02:34.251Z,1002.05
2017-04-14T01:03:34.266Z,1002.02
2017-04-14T01:04:34.284Z,1002.03
2017-04-14T01:05:34.300Z,1002.06
2017-04-14T01:06:34.316Z,1002.09
2017-04-14T01:07:34.330Z,1002.02
2017-04-14T01:08:34.347Z,1002.05
2017-04-14T01:09:34.362Z,1002.02
2017-04-14T01:10:34.379Z,1002.01
2017-04-14T01:11:34.397Z,1001.98
2017-04-14T01:12:34.409Z,1001.97
2017-04-14T01:13:34.426Z,1001.95
2017-04-14T01:14:34.442Z,1001.99
2017-04-14T01:15:34.458Z,1001.98
2017-04-14T01:16:34.473Z,1001.96
2017-04-14T01:17:34.489Z,1002.01
2017-04-14T01:18:34.505Z,1002.03
2017-04-14T01:19:34.521Z,1002.01
2017-04-14T01:20:34.538Z,1002.01
2017-04-14T01:21:34.551Z,1002.03
2017-04-14T01:22:34.568Z,1002.02
2017-04-14T01:23:34.596Z,1002.01
2017-04-14T01:24:34.600Z,1001.97
2017-04-14T01:25:34.616Z,1001.97
2017-04-14T01:26:34.631Z,1001.97
2017-04-14T01:27:34.646Z,1002
2017-04-14T01:28:34.662Z,1001.99
2017-04-14T01:29:34.679Z,1002
2017-04-14T01:30:34.695Z,1002.01
2017-04-14T01:31:34.712Z,1002.01
2017-04-14T01:32:34.728Z,1001.98
2017-04-14T01:33:34.742Z,1002
2017-04-14T01:34:34.759Z,1001.95
2017-04-14T01:35:34.773Z,1001.98
2017-04-14T01:36:34.789Z,1001.98
2017-04-14T01:37:34.810Z,1001.98
2017-04-14T01:38:34.821Z,1001.98
2017-04-14T01:39:34.837Z,1001.97
2017-04-14T01:40:34.854Z,1001.99
2017-04-14T01:41:34.870Z,1002
2017-04-14T01:42:34.884Z,1002.03
2017-04-14T01:43:34.902Z,1002.05
2017-04-14T01:44:34.915Z,1002.08
2017-04-14T01:45:34.933Z,1002.06
2017-04-14T01:46:34.946Z,1002.04
2017-04-14T01:47:34.962Z,1002.06
2017-04-14T01:48:34.978Z,1002.08
2017-04-14T01:49:34.994Z,1002.06
2017-04-14T01:50:35.008Z,1002.1
2017-04-14T01:51:35.026Z,1002.1
2017-04-14T01:52:35.040Z,1002.1
2017-04-14T01:53:35.057Z,1002.09
2017-04-14T01:54:35.071Z,1002.09
2017-04-14T01:55:35.204Z,1002.11
2017-04-14T01:56:35.104Z,1002.09
2017-04-14T01:57:35.162Z,1002.06
2017-04-14T01:58:35.232Z,1002.12
2017-04-14T01:59:35.240Z,1002.13
2017-04-14T02:00:35.250Z,1002.14
2017-04-14T02:01:35.258Z,1002.13
2017-04-14T02:02:35.258Z,1002.1
2017-04-14T02:03:35.266Z,1002.13
2017-04-14T02:04:35.275Z,1002.14
2017-04-14T02:05:35.330Z,1002.17
2017-04-14T02:06:35.293Z,1002.16
2017-04-14T02:07:35.292Z,1002.13
2017-04-14T02:08:35.300Z,1002.15
2017-04-14T02:09:35.309Z,1002.14
2017-04-14T02:10:35.376Z,1002.16
2017-04-14T02:11:35.378Z,1002.14
2017-04-14T02:12:35.385Z,1002.14
2017-04-14T02:13:35.395Z,1002.19
2017-04-14T02:14:35.405Z,1002.16
2017-04-14T02:15:35.411Z,1002.16
2017-04-14T02:16:35.420Z,1002.15
2017-04-14T02:17:35.431Z,1002.18
2017-04-14T02:18:35.543Z,1002.2
2017-04-14T02:19:35.552Z,1002.15
2017-04-14T02:20:35.561Z,1002.14
2017-04-14T02:21:35.570Z,1002.16
2017-04-14T02:22:35.579Z,1002.12
2017-04-14T02:23:35.524Z,1002.12
2017-04-14T02:24:35.540Z,1002.1
2017-04-14T02:25:35.553Z,1002.07
2017-04-14T02:26:35.568Z,1002.09
2017-04-14T02:27:35.586Z,1002.08
2017-04-14T02:28:35.601Z,1002.06
2017-04-14T02:29:35.615Z,1002.1
2017-04-14T02:30:35.632Z,1002.11
2017-04-14T02:31:35.650Z,1002.08
2017-04-14T02:32:35.662Z,1002.09
2017-04-14T02:33:35.678Z,1002.07
2017-04-14T02:34:35.693Z,1002.08
2017-04-14T02:35:35.709Z,1002.11
2017-04-14T02:36:35.723Z,1002.12
2017-04-14T02:37:35.744Z,1002.08
2017-04-14T02:38:35.754Z,1002.07
2017-04-14T02:39:35.772Z,1002.09
2017-04-14T02:40:35.786Z,1002.08
2017-04-14T02:41:35.801Z,1002.05
2017-04-14T02:42:35.818Z,1002.08
2017-04-14T02:43:35.835Z,1002.08
2017-04-14T02:44:35.847Z,1002.13
2017-04-14T02:45:35.862Z,1002.11
2017-04-14T02:46:35.879Z,1002.06
2017-04-14T02:47:35.894Z,1002.09
2017-04-14T02:48:35.913Z,1002.12
2017-04-14T02:49:35.925Z,1002.11
2017-04-14T02:50:35.941Z,1002.11
2017-04-14T02:51:35.954Z,1002.07
2017-04-14T02:52:35.969Z,1002.15
2017-04-14T02:53:35.985Z,1002.12
2017-04-14T02:54:36.017Z,1002.13
2017-04-14T02:55:36.023Z,1002.12
2017-04-14T02:56:36.038Z,1002.1
2017-04-14T02:57:36.058Z,1002.09
2017-04-14T02:58:36.168Z,1002.12
2017-04-14T02:59:36.089Z,1002.09
2017-04-14T03:00:36.189Z,1002.1
2017-04-14T03:01:36.108Z,1002.13
2017-04-14T03:02:36.134Z,1002.15
2017-04-14T03:03:36.141Z,1002.1
2017-04-14T03:04:36.152Z,1002.12
2017-04-14T03:05:36.169Z,1002.12
2017-04-14T03:06:36.185Z,1002.11
2017-04-14T03:07:36.213Z,1002.11
2017-04-14T03:08:36.228Z,1002.11
2017-04-14T03:09:36.238Z,1002.14
2017-04-14T03:10:36.245Z,1002.14
2017-04-14T03:11:36.262Z,1002.14
2017-04-14T03:12:36.276Z,1002.13
2017-04-14T03:13:36.292Z,1002.15
2017-04-14T03:14:36.310Z,1002.11
2017-04-14T03:15:36.334Z,1002.14
2017-04-14T03:16:36.336Z,1002.17
2017-04-14T03:17:36.353Z,1002.12
2017-04-14T03:18:36.368Z,1002.21
2017-04-14T03:19:36.384Z,1002.16
2017-04-14T03:20:36.397Z,1002.13
2017-04-14T03:21:36.413Z,1002.2
2017-04-14T03:22:36.429Z,1002.21
2017-04-14T03:23:36.446Z,1002.21
2017-04-14T03:24:36.459Z,1002.2
2017-04-14T03:25:36.474Z,1002.21
2017-04-14T03:26:36.489Z,1002.18
2017-04-14T03:27:36.504Z,1002.15
2017-04-14T03:28:36.520Z,1002.19
2017-04-14T03:29:36.536Z,1002.17
2017-04-14T03:30:36.551Z,1002.15
2017-04-14T03:31:36.564Z,1002.17
2017-04-14T03:32:36.581Z,1002.16
2017-04-14T03:33:36.595Z,1002.14
2017-04-14T03:34:36.611Z,1002.15
2017-04-14T03:35:36.625Z,1002.15
2017-04-14T03:36:36.640Z,1002.14
2017-04-14T03:37:36.657Z,1002.15
2017-04-14T03:38:36.670Z,1002.13
2017-04-14T03:39:36.689Z,1002.16
2017-04-14T03:40:36.700Z,1002.17
2017-04-14T03:41:36.717Z,1002.18
2017-04-14T03:42:36.731Z,1002.18
2017-04-14T03:43:36.745Z,1002.2
2017-04-14T03:44:36.761Z,1002.18
2017-04-14T03:45:36.775Z,1002.21
2017-04-14T03:46:36.790Z,1002.23
2017-04-14T03:47:36.806Z,1002.24
2017-04-14T03:48:36.825Z,1002.21
2017-04-14T03:49:36.836Z,1002.21
2017-04-14T03:50:36.850Z,1002.21
2017-04-14T03:51:36.866Z,1002.22
2017-04-14T03:52:36.880Z,1002.21
2017-04-14T03:53:36.898Z,1002.23
2017-04-14T03:54:36.942Z,1002.24
2017-04-14T03:55:36.925Z,1002.23
2017-04-14T03:56:36.939Z,1002.24
2017-04-14T03:57:36.954Z,1002.24
2017-04-14T03:58:36.969Z,1002.21
2017-04-14T03:59:36.986Z,1002.22
2017-04-14T04:00:37.002Z,1002.26
2017-04-14T04:01:37.018Z,1002.26
2017-04-14T04:02:37.031Z,1002.24
2017-04-14T04:03:37.049Z,1002.25
2017-04-14T04:04:37.101Z,1002.27
2017-04-14T04:05:37.073Z,1002.28
2017-04-14T04:06:37.092Z,1002.3
2017-04-14T04:07:37.108Z,1002.3
2017-04-14T04:08:37.119Z,1002.33
2017-04-14T04:09:37.134Z,1002.31
2017-04-14T04:10:37.149Z,1002.32
2017-04-14T04:11:37.162Z,1002.31
2017-04-14T04:12:37.181Z,1002.35
2017-04-14T04:13:37.193Z,1002.36
2017-04-14T04:14:37.208Z,1002.33
2017-04-14T04:15:37.227Z,1002.33
2017-04-14T04:16:37.240Z,1002.37
2017-04-14T04:17:37.252Z,1002.33
2017-04-14T04:18:37.270Z,1002.32
2017-04-14T04:19:37.282Z,1002.32
2017-04-14T04:20:37.297Z,1002.31
2017-04-14T04:21:37.312Z,1002.36
2017-04-14T04:22:37.326Z,1002.39
2017-04-14T04:23:37.342Z,1002.38
2017-04-14T04:24:37.357Z,1002.39
2017-04-14T04:25:37.371Z,1002.39
2017-04-14T04:26:37.385Z,1002.4
2017-04-14T04:27:37.401Z,1002.43
2017-04-14T04:28:37.415Z,1002.42
2017-04-14T04:29:37.430Z,1002.45
2017-04-14T04:30:37.448Z,1002.4
2017-04-14T04:31:37.463Z,1002.43
2017-04-14T04:32:37.474Z,1002.42
2017-04-14T04:33:37.491Z,1002.46
2017-04-14T04:34:37.503Z,1002.48
2017-04-14T04:35:37.518Z,1002.48
2017-04-14T04:36:37.534Z,1002.5
2017-04-14T04:37:37.548Z,1002.49
2017-04-14T04:38:37.563Z,1002.49
2017-04-14T04:39:37.578Z,1002.5
2017-04-14T04:40:37.594Z,1002.49
2017-04-14T04:41:37.609Z,1002.51
2017-04-14T04:42:37.623Z,1002.54
2017-04-14T04:43:37.639Z,1002.55
2017-04-14T04:44:37.652Z,1002.57
2017-04-14T04:45:37.667Z,1002.6
2017-04-14T04:46:37.682Z,1002.59
2017-04-14T04:47:37.697Z,1002.61
2017-04-14T04:48:37.709Z,1002.6
2017-04-14T04:49:37.724Z,1002.62
2017-04-14T04:50:37.740Z,1002.62
2017-04-14T04:51:37.753Z,1002.68
2017-04-14T04:52:37.768Z,1002.65
2017-04-14T04:53:37.784Z,1002.66
2017-04-14T04:54:37.798Z,1002.66
2017-04-14T04:55:37.812Z,1002.64
2017-04-14T04:56:37.831Z,1002.68
2017-04-14T04:57:37.843Z,1002.64
2017-04-14T04:58:37.858Z,1002.7
2017-04-14T04:59:37.871Z,1002.7
2017-04-14T05:00:37.888Z,1002.72
2017-04-14T05:01:37.901Z,1002.7
2017-04-14T05:02:37.915Z,1002.76
2017-04-14T05:03:37.932Z,1002.73
2017-04-14T05:04:37.944Z,1002.74
2017-04-14T05:05:37.960Z,1002.75
2017-04-14T05:06:37.973Z,1002.75
2017-04-14T05:07:37.989Z,1002.78
2017-04-14T05:08:38.006Z,1002.76
2017-04-14T05:09:38.020Z,1002.78
2017-04-14T05:10:38.032Z,1002.79
2017-04-14T05:11:38.048Z,1002.76
2017-04-14T05:12:38.062Z,1002.77
2017-04-14T05:13:38.077Z,1002.82
2017-04-14T05:14:38.091Z,1002.8
2017-04-14T05:15:38.106Z,1002.8
2017-04-14T05:16:38.126Z,1002.81
2017-04-14T05:17:38.136Z,1002.79
2017-04-14T05:18:38.150Z,1002.83
2017-04-14T05:19:38.165Z,1002.8
2017-04-14T05:20:38.180Z,1002.81
2017-04-14T05:21:38.193Z,1002.85
2017-04-14T05:22:38.209Z,1002.83
2017-04-14T05:23:38.223Z,1002.85
2017-04-14T05:24:38.237Z,1002.86
2017-04-14T05:25:38.254Z,1002.83
2017-04-14T05:26:38.267Z,1002.87
2017-04-14T05:27:38.283Z,1002.89
2017-04-14T05:28:38.295Z,1002.9
2017-04-14T05:29:38.312Z,1002.95
2017-04-14T05:30:38.326Z,1002.96
2017-04-14T05:31:38.341Z,1002.97
2017-04-14T05:32:38.354Z,1003.01
2017-04-14T05:33:38.370Z,1003.01
2017-04-14T05:34:38.386Z,1003.04
2017-04-14T05:35:38.397Z,1003.01
2017-04-14T05:36:38.412Z,1003.03
2017-04-14T05:37:38.427Z,1003.09
2017-04-14T05:38:38.442Z,1003.04
2017-04-14T05:39:38.461Z,1003.05
2017-04-14T05:40:38.470Z,1003.1
2017-04-14T05:41:38.488Z,1003.1
2017-04-14T05:42:38.502Z,1003.15
2017-04-14T05:43:38.515Z,1003.08
2017-04-14T05:44:38.529Z,1003.09
2017-04-14T05:45:38.544Z,1003.11
2017-04-14T05:46:38.558Z,1003.12
2017-04-14T05:47:38.572Z,1003.14
2017-04-14T05:48:38.588Z,1003.13
2017-04-14T05:49:38.603Z,1003.16
2017-04-14T05:50:38.616Z,1003.14
2017-04-14T05:51:38.632Z,1003.19
2017-04-14T05:52:38.647Z,1003.18
2017-04-14T05:53:38.662Z,1003.18
2017-04-14T05:54:38.676Z,1003.18
2017-04-14T05:55:38.691Z,1003.21
2017-04-14T05:56:38.705Z,1003.16
2017-04-14T05:57:38.720Z,1003.18
2017-04-14T05:58:38.733Z,1003.18
2017-04-14T05:59:38.750Z,1003.22
2017-04-14T06:00:38.764Z,1003.18
2017-04-14T06:01:38.777Z,1003.16
2017-04-14T06:02:38.793Z,1003.16
2017-04-14T06:03:38.808Z,1003.18
2017-04-14T06:04:38.827Z,1003.25
2017-04-14T06:05:38.836Z,1003.25
2017-04-14T06:06:38.850Z,1003.22
2017-04-14T06:07:38.865Z,1003.23
2017-04-14T06:08:38.879Z,1003.21
2017-04-14T06:09:38.895Z,1003.25
2017-04-14T06:10:38.910Z,1003.28
2017-04-14T06:11:38.924Z,1003.24
2017-04-14T06:12:38.939Z,1003.21
2017-04-14T06:13:38.953Z,1003.26
2017-04-14T06:14:38.969Z,1003.22
2017-04-14T06:15:38.984Z,1003.28
2017-04-14T06:16:38.998Z,1003.28
2017-04-14T06:17:39.014Z,1003.27
2017-04-14T06:18:39.027Z,1003.29
2017-04-14T06:19:39.041Z,1003.26
2017-04-14T06:20:39.089Z,1003.3
2017-04-14T06:21:39.072Z,1003.26
2017-04-14T06:22:39.086Z,1003.3
2017-04-14T06:23:39.099Z,1003.34
2017-04-14T06:24:39.115Z,1003.32
2017-04-14T06:25:39.130Z,1003.33
2017-04-14T06:26:39.143Z,1003.37
2017-04-14T06:27:39.160Z,1003.32
2017-04-14T06:28:39.172Z,1003.34
2017-04-14T06:29:39.188Z,1003.35
2017-04-14T06:30:39.202Z,1003.36
2017-04-14T06:31:39.216Z,1003.39
2017-04-14T06:32:39.230Z,1003.39
2017-04-14T06:33:39.246Z,1003.34
2017-04-14T06:34:39.259Z,1003.36
2017-04-14T06:35:39.275Z,1003.35
2017-04-14T06:36:39.290Z,1003.4
2017-04-14T06:37:39.304Z,1003.39
2017-04-14T06:38:39.318Z,1003.41
2017-04-14T06:39:39.333Z,1003.43
2017-04-14T06:40:39.349Z,1003.43
2017-04-14T06:41:39.363Z,1003.48
2017-04-14T06:42:39.377Z,1003.43
2017-04-14T06:43:39.392Z,1003.53
2017-04-14T06:44:39.406Z,1003.49
2017-04-14T06:45:39.420Z,1003.48
2017-04-14T06:46:39.435Z,1003.45
2017-04-14T06:47:39.450Z,1003.47
2017-04-14T06:48:39.463Z,1003.46
2017-04-14T06:49:39.479Z,1003.5
2017-04-14T06:50:39.495Z,1003.54
2017-04-14T06:51:39.508Z,1003.53
2017-04-14T06:52:39.524Z,1003.55
2017-04-14T06:53:39.538Z,1003.53
2017-04-14T06:54:39.553Z,1003.52
2017-04-14T06:55:39.566Z,1003.55
2017-04-14T06:56:39.583Z,1003.53
2017-04-14T06:57:39.598Z,1003.55
2017-04-14T06:58:39.612Z,1003.5
2017-04-14T06:59:39.627Z,1003.53
2017-04-14T07:00:39.641Z,1003.49
2017-04-14T07:01:39.659Z,1003.55
2017-04-14T07:02:39.671Z,1003.49
2017-04-14T07:03:39.686Z,1003.53
2017-04-14T07:04:39.700Z,1003.52
2017-04-14T07:05:39.716Z,1003.48
2017-04-14T07:06:39.785Z,1003.49
2017-04-14T07:07:39.746Z,1003.5
2017-04-14T07:08:39.759Z,1003.5
2017-04-14T07:09:39.774Z,1003.51
2017-04-14T07:10:39.790Z,1003.56
2017-04-14T07:11:39.803Z,1003.54
2017-04-14T07:12:39.819Z,1003.52
2017-04-14T07:13:39.835Z,1003.54
2017-04-14T07:14:39.849Z,1003.53
2017-04-14T07:15:39.863Z,1003.52
2017-04-14T07:16:39.879Z,1003.52
2017-04-14T07:17:39.899Z,1003.55
2017-04-14T07:18:39.909Z,1003.53
2017-04-14T07:19:39.923Z,1003.56
2017-04-14T07:20:39.938Z,1003.54
2017-04-14T07:21:39.953Z,1003.56
2017-04-14T07:22:39.968Z,1003.59
2017-04-14T07:23:39.982Z,1003.57
2017-04-14T07:24:39.998Z,1003.57
2017-04-14T07:25:40.012Z,1003.6
2017-04-14T07:26:40.029Z,1003.58
2017-04-14T07:27:40.043Z,1003.56
2017-04-14T07:28:40.058Z,1003.57
2017-04-14T07:29:40.073Z,1003.63
2017-04-14T07:30:40.088Z,1003.58
2017-04-14T07:31:40.103Z,1003.63
2017-04-14T07:32:40.118Z,1003.64
2017-04-14T07:33:40.134Z,1003.6
2017-04-14T07:34:40.149Z,1003.59
2017-04-14T07:35:40.164Z,1003.63
2017-04-14T07:36:40.178Z,1003.57
2017-04-14T07:37:40.193Z,1003.56
2017-04-14T07:38:40.209Z,1003.56
2017-04-14T07:39:40.226Z,1003.57
2017-04-14T07:40:40.238Z,1003.62
2017-04-14T07:41:40.253Z,1003.62
2017-04-14T07:42:40.269Z,1003.58
2017-04-14T07:43:40.282Z,1003.54
2017-04-14T07:44:40.298Z,1003.57
2017-04-14T07:45:40.314Z,1003.63
2017-04-14T07:46:40.330Z,1003.64
2017-04-14T07:47:40.343Z,1003.65
2017-04-14T07:48:40.359Z,1003.6
2017-04-14T07:49:40.374Z,1003.63
2017-04-14T07:50:40.391Z,1003.63
2017-04-14T07:51:40.408Z,1003.68
2017-04-14T07:52:40.422Z,1003.74
2017-04-14T07:53:40.437Z,1003.72
2017-04-14T07:54:40.452Z,1003.72
2017-04-14T07:55:40.468Z,1003.76
2017-04-14T07:56:40.483Z,1003.72
2017-04-14T07:57:40.499Z,1003.77
2017-04-14T07:58:40.513Z,1003.78
2017-04-14T07:59:40.528Z,1003.74
2017-04-14T08:00:40.544Z,1003.75
2017-04-14T08:01:40.558Z,1003.79
2017-04-14T08:02:40.576Z,1003.8
2017-04-14T08:03:40.592Z,1003.78
2017-04-14T08:04:40.607Z,1003.82
2017-04-14T08:05:40.623Z,1003.86
2017-04-14T08:06:40.637Z,1003.86
2017-04-14T08:07:40.654Z,1003.88
2017-04-14T08:08:40.669Z,1003.86
2017-04-14T08:09:40.685Z,1003.83
2017-04-14T08:10:40.699Z,1003.86
2017-04-14T08:11:40.715Z,1003.88
2017-04-14T08:12:40.732Z,1003.92
2017-04-14T08:13:40.747Z,1003.94
2017-04-14T08:14:40.763Z,1003.93
2017-04-14T08:15:40.779Z,1003.9
2017-04-14T08:16:40.794Z,1003.92
2017-04-14T08:17:40.811Z,1003.91
2017-04-14T08:18:40.826Z,1003.88
2017-04-14T08:19:40.844Z,1003.88
2017-04-14T08:20:40.858Z,1003.85
2017-04-14T08:21:40.875Z,1003.88
2017-04-14T08:22:40.892Z,1003.9
2017-04-14T08:23:40.904Z,1003.9
2017-04-14T08:24:40.923Z,1003.79
2017-04-14T08:25:40.938Z,1003.87
2017-04-14T08:26:40.953Z,1003.93
2017-04-14T08:27:40.968Z,1003.84
2017-04-14T08:28:40.986Z,1003.81
2017-04-14T08:29:41.001Z,1003.79
2017-04-14T08:30:41.017Z,1003.79
2017-04-14T08:31:41.033Z,1003.81
2017-04-14T08:32:41.048Z,1003.8
2017-04-14T08:33:41.066Z,1003.84
2017-04-14T08:34:41.081Z,1003.8
2017-04-14T08:35:41.097Z,1003.79
2017-04-14T08:36:41.112Z,1003.78
2017-04-14T08:37:41.131Z,1003.82
2017-04-14T08:38:41.143Z,1003.8
2017-04-14T08:39:41.160Z,1003.79
2017-04-14T08:40:41.178Z,1003.83
2017-04-14T08:41:41.194Z,1003.84
2017-04-14T08:42:41.209Z,1003.84
2017-04-14T08:43:41.225Z,1003.84
2017-04-14T08:44:41.280Z,1003.9
2017-04-14T08:45:41.258Z,1003.88
2017-04-14T08:46:41.274Z,1003.86
2017-04-14T08:47:41.289Z,1003.89
2017-04-14T08:48:41.307Z,1003.9
2017-04-14T08:49:41.321Z,1003.91
2017-04-14T08:50:41.339Z,1003.87
2017-04-14T08:51:41.355Z,1003.81
2017-04-14T08:52:41.373Z,1003.86
2017-04-14T08:53:41.389Z,1003.83
2017-04-14T08:54:41.408Z,1003.84
2017-04-14T08:55:41.420Z,1003.87
2017-04-14T08:56:41.437Z,1003.86
2017-04-14T08:57:41.453Z,1003.88
2017-04-14T08:58:41.469Z,1003.9
2017-04-14T08:59:41.488Z,1003.87
2017-04-14T09:00:41.505Z,1003.88
2017-04-14T09:01:41.520Z,1003.89
2017-04-14T09:02:41.537Z,1003.89
2017-04-14T09:03:41.553Z,1003.91
2017-04-14T09:04:41.691Z,1003.88
2017-04-14T09:05:41.735Z,1003.91
2017-04-14T09:06:41.699Z,1003.93
2017-04-14T09:07:41.707Z,1003.89
2017-04-14T09:08:41.739Z,1003.85
2017-04-14T09:09:41.739Z,1003.88
2017-04-14T09:10:41.747Z,1003.84
2017-04-14T09:11:41.756Z,1003.82
2017-04-14T09:12:41.725Z,1003.86
2017-04-14T09:13:41.733Z,1003.85
2017-04-14T09:14:41.738Z,1003.84
2017-04-14T09:15:41.865Z,1003.89
2017-04-14T09:16:41.886Z,1003.9
2017-04-14T09:17:41.901Z,1003.92
2017-04-14T09:18:41.903Z,1003.88
2017-04-14T09:19:41.926Z,1003.92
2017-04-14T09:20:41.885Z,1003.87
2017-04-14T09:21:41.892Z,1003.89
2017-04-14T09:22:41.907Z,1003.86
2017-04-14T09:23:41.902Z,1003.84
2017-04-14T09:24:41.911Z,1003.89
2017-04-14T09:25:41.927Z,1003.93
2017-04-14T09:26:42.035Z,1003.9
2017-04-14T09:27:42.043Z,1003.93
2017-04-14T09:28:42.047Z,1003.91
2017-04-14T09:29:42.055Z,1003.87
2017-04-14T09:30:42.064Z,1003.85
2017-04-14T09:31:42.062Z,1003.9
2017-04-14T09:32:42.047Z,1003.83
2017-04-14T09:33:42.066Z,1003.82
2017-04-14T09:34:42.082Z,1003.83
2017-04-14T09:35:42.100Z,1003.78
2017-04-14T09:36:42.119Z,1003.77
2017-04-14T09:37:42.135Z,1003.81
2017-04-14T09:38:42.153Z,1003.81
2017-04-14T09:39:42.170Z,1003.84
2017-04-14T09:40:42.187Z,1003.81
2017-04-14T09:41:42.205Z,1003.81
2017-04-14T09:42:42.222Z,1003.81
2017-04-14T09:43:42.241Z,1003.78
2017-04-14T09:44:42.258Z,1003.78
2017-04-14T09:45:42.277Z,1003.75
2017-04-14T09:46:42.293Z,1003.79
2017-04-14T09:47:42.311Z,1003.78
2017-04-14T09:48:42.329Z,1003.75
2017-04-14T09:49:42.348Z,1003.7
2017-04-14T09:50:42.365Z,1003.79
2017-04-14T09:51:42.381Z,1003.73
2017-04-14T09:52:42.399Z,1003.74
2017-04-14T09:53:42.418Z,1003.75
2017-04-14T09:54:42.436Z,1003.7
2017-04-14T09:55:42.454Z,1003.73
2017-04-14T09:56:42.471Z,1003.74
2017-04-14T09:57:42.489Z,1003.73
2017-04-14T09:58:42.507Z,1003.7
2017-04-14T09:59:42.526Z,1003.74
2017-04-14T10:00:42.544Z,1003.72
2017-04-14T10:01:42.562Z,1003.69
2017-04-14T10:02:42.622Z,1003.69
2017-04-14T10:03:42.598Z,1003.7
2017-04-14T10:04:42.620Z,1003.7
2017-04-14T10:05:42.637Z,1003.68
2017-04-14T10:06:42.651Z,1003.76
2017-04-14T10:07:42.671Z,1003.7
2017-04-14T10:08:42.689Z,1003.65
2017-04-14T10:09:42.706Z,1003.68
2017-04-14T10:10:42.726Z,1003.63
2017-04-14T10:11:42.744Z,1003.6
2017-04-14T10:12:42.762Z,1003.59
2017-04-14T10:13:42.783Z,1003.61
2017-04-14T10:14:42.798Z,1003.6
2017-04-14T10:15:42.818Z,1003.59
2017-04-14T10:16:42.835Z,1003.66
2017-04-14T10:17:42.855Z,1003.68
2017-04-14T10:18:42.876Z,1003.66
2017-04-14T10:19:42.894Z,1003.69
2017-04-14T10:20:42.912Z,1003.66
2017-04-14T10:21:42.929Z,1003.62
2017-04-14T10:22:42.949Z,1003.62
2017-04-14T10:23:42.967Z,1003.58
2017-04-14T10:24:42.986Z,1003.61
2017-04-14T10:25:43.004Z,1003.58
2017-04-14T10:26:43.024Z,1003.59
2017-04-14T10:27:43.044Z,1003.55
2017-04-14T10:28:43.062Z,1003.59
2017-04-14T10:29:43.082Z,1003.61
2017-04-14T10:30:43.104Z,1003.6
2017-04-14T10:31:43.118Z,1003.57
2017-04-14T10:32:43.138Z,1003.59
2017-04-14T10:33:43.159Z,1003.58
2017-04-14T10:34:43.176Z,1003.54
2017-04-14T10:35:43.194Z,1003.62
2017-04-14T10:36:43.214Z,1003.6
2017-04-14T10:37:43.234Z,1003.57
2017-04-14T10:38:43.255Z,1003.6
2017-04-14T10:39:43.271Z,1003.54
2017-04-14T10:40:43.292Z,1003.54
2017-04-14T10:41:43.312Z,1003.53
2017-04-14T10:42:43.331Z,1003.54
2017-04-14T10:43:43.351Z,1003.56
2017-04-14T10:44:43.370Z,1003.56
2017-04-14T10:45:43.390Z,1003.48
2017-04-14T10:46:43.408Z,1003.5
2017-04-14T10:47:43.429Z,1003.48
2017-04-14T10:48:43.448Z,1003.48
2017-04-14T10:49:43.468Z,1003.52
2017-04-14T10:50:43.487Z,1003.45
2017-04-14T10:51:43.506Z,1003.45
2017-04-14T10:52:43.528Z,1003.47
2017-04-14T10:53:43.548Z,1003.46
2017-04-14T10:54:43.567Z,1003.47
2017-04-14T10:55:43.586Z,1003.48
2017-04-14T10:56:43.607Z,1003.49
2017-04-14T10:57:43.630Z,1003.45
2017-04-14T10:58:43.647Z,1003.44
2017-04-14T10:59:43.666Z,1003.42
2017-04-14T11:00:43.688Z,1003.4
2017-04-14T11:01:43.707Z,1003.41
2017-04-14T11:02:43.728Z,1003.45
2017-04-14T11:03:43.748Z,1003.44
2017-04-14T11:04:43.768Z,1003.42
2017-04-14T11:05:43.794Z,1003.42
2017-04-14T11:06:43.809Z,1003.4
2017-04-14T11:07:43.830Z,1003.43
2017-04-14T11:08:43.849Z,1003.48
2017-04-14T11:09:43.869Z,1003.43
2017-04-14T11:10:43.890Z,1003.41
2017-04-14T11:11:43.910Z,1003.39
2017-04-14T11:12:43.931Z,1003.36
2017-04-14T11:13:43.953Z,1003.33
2017-04-14T11:14:43.974Z,1003.34
2017-04-14T11:15:43.992Z,1003.41
2017-04-14T11:16:44.014Z,1003.31
2017-04-14T11:17:44.035Z,1003.37
2017-04-14T11:18:44.055Z,1003.41
2017-04-14T11:19:44.075Z,1003.38
2017-04-14T11:20:44.098Z,1003.4
2017-04-14T11:21:44.118Z,1003.41
2017-04-14T11:22:44.138Z,1003.39
2017-04-14T11:23:44.162Z,1003.4
2017-04-14T11:24:44.180Z,1003.38
2017-04-14T11:25:44.202Z,1003.41
2017-04-14T11:26:44.222Z,1003.41
2017-04-14T11:27:44.243Z,1003.37
2017-04-14T11:28:44.263Z,1003.38
2017-04-14T11:29:44.284Z,1003.39
2017-04-14T11:30:44.304Z,1003.35
2017-04-14T11:31:44.327Z,1003.37
2017-04-14T11:32:44.349Z,1003.37
2017-04-14T11:33:44.369Z,1003.31
2017-04-14T11:34:44.390Z,1003.28
2017-04-14T11:35:44.413Z,1003.23
2017-04-14T11:36:44.432Z,1003.18
2017-04-14T11:37:44.454Z,1003.27
2017-04-14T11:38:44.476Z,1003.29
2017-04-14T11:39:44.498Z,1003.29
2017-04-14T11:40:44.519Z,1003.33
2017-04-14T11:41:44.539Z,1003.35
2017-04-14T11:42:44.560Z,1003.35
2017-04-14T11:43:44.583Z,1003.33
2017-04-14T11:44:44.602Z,1003.34
2017-04-14T11:45:44.624Z,1003.31
2017-04-14T11:46:44.645Z,1003.3
2017-04-14T11:47:44.666Z,1003.28
2017-04-14T11:48:44.688Z,1003.3
2017-04-14T11:49:44.709Z,1003.28
2017-04-14T11:50:44.730Z,1003.24
2017-04-14T11:51:44.753Z,1003.21
2017-04-14T11:52:44.774Z,1003.23
2017-04-14T11:53:44.795Z,1003.22
2017-04-14T11:54:44.818Z,1003.24
2017-04-14T11:55:44.839Z,1003.28
2017-04-14T11:56:44.911Z,1003.25
2017-04-14T11:57:44.882Z,1003.27
2017-04-14T11:58:44.903Z,1003.26
2017-04-14T11:59:44.926Z,1003.25
2017-04-14T12:00:44.949Z,1003.27
2017-04-14T12:01:44.970Z,1003.3
2017-04-14T12:02:44.991Z,1003.32
2017-04-14T12:03:45.012Z,1003.27
2017-04-14T12:04:45.034Z,1003.32
2017-04-14T12:05:45.055Z,1003.26
2017-04-14T12:06:45.077Z,1003.26
2017-04-14T12:07:45.099Z,1003.28
2017-04-14T12:08:45.121Z,1003.28
2017-04-14T12:09:45.145Z,1003.25